UAL1532 KMSY-KIAH
Flight info
| Callsign | UAL1532 |
|---|---|
| Flight time | 1h 3m |
| Altitude | 38000 |
| Route | JEPEG SOULL1 |
| Aircraft | A319/M-SDE3FGHIRWY/LB1 |
Departure
| Time | 2026-05-05 00:25 |
|---|---|
| Airport | Louis Armstrong New Orleans International Airport (KMSY) |
Arrival
| Time | 2026-05-05 01:29 |
|---|---|
| Airport | George Bush Intercontinental Airport (KIAH) |
| Time | Latitude | Longitude | Altitude | Speed | Heading |
|---|---|---|---|---|---|
| 2026-05-05 00:05 | 29.99455 | -90.25430 | 7 ft | 0 kts | 88° |
| 2026-05-05 00:15 | 29.99454 | -90.25445 | 7 ft | 4 kts | 88° |
| 2026-05-05 00:16 | 29.99453 | -90.25476 | 7 ft | 4 kts | 88° |
| 2026-05-05 00:16 | 29.99452 | -90.25503 | 7 ft | 2 kts | 88° |
| 2026-05-05 00:16 | 29.99455 | -90.25524 | 7 ft | 4 kts | 158° |
| 2026-05-05 00:16 | 29.99479 | -90.25526 | 7 ft | 3 kts | 182° |
| 2026-05-05 00:17 | 29.99482 | -90.25526 | 7 ft | 0 kts | 182° |
| 2026-05-05 00:20 | 29.99479 | -90.25526 | 7 ft | 3 kts | 182° |
| 2026-05-05 00:21 | 29.99426 | -90.25530 | 7 ft | 13 kts | 183° |
| 2026-05-05 00:21 | 29.99304 | -90.25537 | 6 ft | 21 kts | 183° |
| 2026-05-05 00:21 | 29.99203 | -90.25591 | 5 ft | 17 kts | 264° |
| 2026-05-05 00:21 | 29.99215 | -90.25730 | 4 ft | 14 kts | 282° |
| 2026-05-05 00:22 | 29.99249 | -90.25837 | 5 ft | 16 kts | 309° |
| 2026-05-05 00:22 | 29.99345 | -90.25909 | 4 ft | 19 kts | 289° |
| 2026-05-05 00:22 | 29.99388 | -90.26088 | 5 ft | 27 kts | 285° |
| 2026-05-05 00:22 | 29.99444 | -90.26319 | 8 ft | 34 kts | 285° |
| 2026-05-05 00:23 | 29.99512 | -90.26604 | 12 ft | 40 kts | 285° |
| 2026-05-05 00:23 | 29.99595 | -90.26939 | 13 ft | 47 kts | 286° |
| 2026-05-05 00:23 | 29.99669 | -90.27249 | 7 ft | 34 kts | 285° |
| 2026-05-05 00:23 | 29.99727 | -90.27494 | 5 ft | 23 kts | 285° |
| 2026-05-05 00:24 | 29.99738 | -90.27638 | 4 ft | 17 kts | 239° |
| 2026-05-05 00:24 | 29.99658 | -90.27684 | 1 ft | 13 kts | 194° |
| 2026-05-05 00:24 | 29.99576 | -90.27712 | 0 ft | 11 kts | 193° |
| 2026-05-05 00:24 | 29.99541 | -90.27667 | 0 ft | 0 kts | 105° |
| 2026-05-05 00:25 | 29.99541 | -90.27665 | 0 ft | 2 kts | 105° |
| 2026-05-05 00:25 | 29.99477 | -90.27399 | 4 ft | 79 kts | 105° |
| 2026-05-05 00:25 | 29.99252 | -90.26476 | 11 ft | 158 kts | 105° |
| 2026-05-05 00:25 | 29.98957 | -90.25194 | 663 ft | 166 kts | 109° |
| 2026-05-05 00:26 | 29.98844 | -90.24713 | 995 ft | 167 kts | 109° |
| 2026-05-05 00:26 | 29.98527 | -90.23412 | 1853 ft | 169 kts | 110° |
| 2026-05-05 00:26 | 29.98158 | -90.22060 | 2275 ft | 187 kts | 116° |
| 2026-05-05 00:26 | 29.97235 | -90.20938 | 2582 ft | 207 kts | 156° |
| 2026-05-05 00:27 | 29.95745 | -90.20804 | 2988 ft | 233 kts | 197° |
| 2026-05-05 00:27 | 29.94411 | -90.21956 | 3664 ft | 254 kts | 235° |
| 2026-05-05 00:27 | 29.93699 | -90.23820 | 4682 ft | 261 kts | 253° |
| 2026-05-05 00:27 | 29.93290 | -90.25866 | 5806 ft | 262 kts | 261° |
| 2026-05-05 00:28 | 29.92975 | -90.27944 | 6884 ft | 264 kts | 262° |
| 2026-05-05 00:28 | 29.92655 | -90.30035 | 7882 ft | 266 kts | 262° |
| 2026-05-05 00:28 | 29.92303 | -90.32138 | 8878 ft | 269 kts | 261° |
| 2026-05-05 00:28 | 29.91915 | -90.34257 | 9877 ft | 271 kts | 260° |
| 2026-05-05 00:29 | 29.91491 | -90.36430 | 10469 ft | 288 kts | 259° |
| 2026-05-05 00:29 | 29.91025 | -90.38734 | 11069 ft | 300 kts | 259° |
| 2026-05-05 00:29 | 29.90535 | -90.41088 | 11866 ft | 304 kts | 259° |
| 2026-05-05 00:29 | 29.90033 | -90.43470 | 12672 ft | 308 kts | 260° |
| 2026-05-05 00:30 | 29.89529 | -90.45851 | 13457 ft | 312 kts | 260° |
| 2026-05-05 00:30 | 29.89003 | -90.48330 | 14206 ft | 316 kts | 260° |
| 2026-05-05 00:30 | 29.88476 | -90.50799 | 14913 ft | 319 kts | 260° |
| 2026-05-05 00:30 | 29.87945 | -90.53288 | 15637 ft | 321 kts | 260° |
| 2026-05-05 00:31 | 29.87409 | -90.55801 | 16363 ft | 324 kts | 260° |
| 2026-05-05 00:31 | 29.86873 | -90.58326 | 17070 ft | 326 kts | 260° |
| 2026-05-05 00:31 | 29.86333 | -90.60881 | 17781 ft | 329 kts | 261° |
| 2026-05-05 00:31 | 29.85792 | -90.63451 | 18463 ft | 331 kts | 261° |
| 2026-05-05 00:32 | 29.85244 | -90.66033 | 19077 ft | 333 kts | 261° |
| 2026-05-05 00:32 | 29.84690 | -90.68638 | 19703 ft | 335 kts | 261° |
| 2026-05-05 00:32 | 29.84133 | -90.71254 | 20345 ft | 337 kts | 261° |
| 2026-05-05 00:32 | 29.83572 | -90.73882 | 20982 ft | 339 kts | 261° |
| 2026-05-05 00:33 | 29.83016 | -90.76486 | 21586 ft | 340 kts | 261° |
| 2026-05-05 00:33 | 29.82448 | -90.79141 | 22185 ft | 342 kts | 262° |
| 2026-05-05 00:33 | 29.81877 | -90.81807 | 22795 ft | 344 kts | 262° |
| 2026-05-05 00:33 | 29.81303 | -90.84487 | 23393 ft | 346 kts | 262° |
| 2026-05-05 00:34 | 29.80726 | -90.87183 | 23924 ft | 348 kts | 263° |
| 2026-05-05 00:34 | 29.80147 | -90.89890 | 24425 ft | 349 kts | 263° |
| 2026-05-05 00:34 | 29.79563 | -90.92614 | 24936 ft | 351 kts | 263° |
| 2026-05-05 00:34 | 29.78976 | -90.95349 | 25426 ft | 353 kts | 263° |
| 2026-05-05 00:35 | 29.78386 | -90.98097 | 25915 ft | 354 kts | 263° |
| 2026-05-05 00:35 | 29.77793 | -91.00855 | 26402 ft | 356 kts | 264° |
| 2026-05-05 00:35 | 29.77197 | -91.03630 | 26876 ft | 358 kts | 264° |
| 2026-05-05 00:35 | 29.76597 | -91.06414 | 27345 ft | 360 kts | 264° |
| 2026-05-05 00:36 | 29.75998 | -91.09179 | 27803 ft | 362 kts | 264° |
| 2026-05-05 00:36 | 29.75388 | -91.11996 | 28269 ft | 364 kts | 264° |
| 2026-05-05 00:36 | 29.74776 | -91.14824 | 28713 ft | 366 kts | 265° |
| 2026-05-05 00:36 | 29.74159 | -91.17672 | 29177 ft | 367 kts | 265° |
| 2026-05-05 00:37 | 29.73538 | -91.20531 | 29637 ft | 370 kts | 265° |
| 2026-05-05 00:37 | 29.72911 | -91.23409 | 30094 ft | 372 kts | 265° |
| 2026-05-05 00:37 | 29.72282 | -91.26299 | 30470 ft | 374 kts | 265° |
| 2026-05-05 00:37 | 29.71648 | -91.29215 | 30843 ft | 376 kts | 265° |
| 2026-05-05 00:38 | 29.71014 | -91.32125 | 31326 ft | 375 kts | 265° |
| 2026-05-05 00:38 | 29.70378 | -91.35017 | 31869 ft | 372 kts | 265° |
| 2026-05-05 00:38 | 29.69742 | -91.37899 | 32407 ft | 370 kts | 265° |
| 2026-05-05 00:38 | 29.69110 | -91.40762 | 32945 ft | 368 kts | 265° |
| 2026-05-05 00:39 | 29.68484 | -91.43612 | 33492 ft | 366 kts | 266° |
| 2026-05-05 00:39 | 29.67865 | -91.46442 | 34025 ft | 364 kts | 266° |
| 2026-05-05 00:39 | 29.67249 | -91.49263 | 34474 ft | 363 kts | 266° |
| 2026-05-05 00:39 | 29.66633 | -91.52067 | 34909 ft | 361 kts | 265° |
| 2026-05-05 00:40 | 29.66019 | -91.54855 | 35319 ft | 359 kts | 265° |
| 2026-05-05 00:40 | 29.65406 | -91.57640 | 35735 ft | 358 kts | 265° |
| 2026-05-05 00:40 | 29.64796 | -91.60414 | 36149 ft | 356 kts | 265° |
| 2026-05-05 00:40 | 29.64196 | -91.63133 | 36548 ft | 355 kts | 265° |
| 2026-05-05 00:41 | 29.63587 | -91.65877 | 36948 ft | 354 kts | 264° |
| 2026-05-05 00:41 | 29.62973 | -91.68645 | 37335 ft | 352 kts | 264° |
| 2026-05-05 00:41 | 29.62378 | -91.71336 | 37710 ft | 351 kts | 264° |
| 2026-05-05 00:41 | 29.61777 | -91.74049 | 37979 ft | 351 kts | 264° |
| 2026-05-05 00:42 | 29.61176 | -91.76748 | 38026 ft | 345 kts | 264° |
| 2026-05-05 00:42 | 29.59995 | -91.82065 | 38025 ft | 342 kts | 264° |
| 2026-05-05 00:43 | 29.58822 | -91.87355 | 38015 ft | 341 kts | 264° |
| 2026-05-05 00:43 | 29.57654 | -91.92597 | 38009 ft | 341 kts | 264° |
| 2026-05-05 00:44 | 29.56475 | -91.97866 | 38016 ft | 340 kts | 264° |
| 2026-05-05 00:44 | 29.55301 | -92.03139 | 38015 ft | 341 kts | 264° |
| 2026-05-05 00:45 | 29.54123 | -92.08412 | 38015 ft | 341 kts | 264° |
| 2026-05-05 00:45 | 29.53135 | -92.12790 | 38018 ft | 341 kts | 264° |
| 2026-05-05 00:46 | 29.51746 | -92.18952 | 37982 ft | 341 kts | 264° |
| 2026-05-05 00:46 | 29.50757 | -92.23331 | 37989 ft | 341 kts | 264° |
| 2026-05-05 00:47 | 29.49561 | -92.28607 | 37994 ft | 341 kts | 264° |
| 2026-05-05 00:47 | 29.48363 | -92.33880 | 37978 ft | 341 kts | 264° |
| 2026-05-05 00:48 | 29.47166 | -92.39157 | 37995 ft | 341 kts | 264° |
| 2026-05-05 00:48 | 29.45979 | -92.44395 | 37998 ft | 341 kts | 264° |
| 2026-05-05 00:49 | 29.45524 | -92.49685 | 37999 ft | 332 kts | 274° |
| 2026-05-05 00:49 | 29.45345 | -92.54970 | 38001 ft | 332 kts | 274° |
| 2026-05-05 00:50 | 29.45167 | -92.60264 | 37989 ft | 333 kts | 274° |
| 2026-05-05 00:50 | 29.44979 | -92.65581 | 37982 ft | 334 kts | 274° |
| 2026-05-05 00:50 | 29.44884 | -92.68268 | 37205 ft | 343 kts | 274° |
| 2026-05-05 00:51 | 29.44788 | -92.71069 | 36144 ft | 358 kts | 274° |
| 2026-05-05 00:51 | 29.44685 | -92.73913 | 35876 ft | 352 kts | 274° |
| 2026-05-05 00:51 | 29.44577 | -92.76696 | 35563 ft | 347 kts | 274° |
| 2026-05-05 00:51 | 29.44470 | -92.79442 | 35215 ft | 343 kts | 274° |
| 2026-05-05 00:52 | 29.44367 | -92.82127 | 34868 ft | 339 kts | 274° |
| 2026-05-05 00:52 | 29.44263 | -92.84817 | 34501 ft | 336 kts | 275° |
| 2026-05-05 00:52 | 29.44162 | -92.87480 | 34140 ft | 332 kts | 275° |
| 2026-05-05 00:52 | 29.44063 | -92.90113 | 33749 ft | 329 kts | 275° |
| 2026-05-05 00:53 | 29.43964 | -92.92728 | 33377 ft | 326 kts | 275° |
| 2026-05-05 00:53 | 29.43865 | -92.95310 | 33023 ft | 322 kts | 275° |
| 2026-05-05 00:53 | 29.43767 | -92.97865 | 32675 ft | 319 kts | 275° |
| 2026-05-05 00:53 | 29.43669 | -93.00396 | 32330 ft | 316 kts | 275° |
| 2026-05-05 00:54 | 29.43574 | -93.02911 | 31985 ft | 314 kts | 275° |
| 2026-05-05 00:54 | 29.43482 | -93.05402 | 31630 ft | 312 kts | 275° |
| 2026-05-05 00:54 | 29.43389 | -93.07882 | 31313 ft | 310 kts | 275° |
| 2026-05-05 00:54 | 29.43296 | -93.10340 | 30987 ft | 307 kts | 275° |
| 2026-05-05 00:55 | 29.43203 | -93.12783 | 30670 ft | 305 kts | 275° |
| 2026-05-05 00:55 | 29.43108 | -93.15204 | 30358 ft | 303 kts | 276° |
| 2026-05-05 00:55 | 29.43012 | -93.17612 | 30040 ft | 302 kts | 276° |
| 2026-05-05 00:55 | 29.42916 | -93.20007 | 29706 ft | 300 kts | 276° |
| 2026-05-05 00:56 | 29.42822 | -93.22391 | 29404 ft | 299 kts | 276° |
| 2026-05-05 00:56 | 29.42729 | -93.24766 | 29103 ft | 298 kts | 275° |
| 2026-05-05 00:56 | 29.42635 | -93.27133 | 28814 ft | 296 kts | 275° |
| 2026-05-05 00:56 | 29.42540 | -93.29460 | 28531 ft | 296 kts | 275° |
| 2026-05-05 00:57 | 29.42445 | -93.31811 | 28243 ft | 295 kts | 275° |
| 2026-05-05 00:57 | 29.42350 | -93.34154 | 27962 ft | 294 kts | 275° |
| 2026-05-05 00:57 | 29.42254 | -93.36489 | 27664 ft | 293 kts | 275° |
| 2026-05-05 00:57 | 29.42158 | -93.38816 | 27370 ft | 292 kts | 275° |
| 2026-05-05 00:58 | 29.42061 | -93.41135 | 27079 ft | 291 kts | 275° |
| 2026-05-05 00:58 | 29.41965 | -93.43450 | 26781 ft | 290 kts | 275° |
| 2026-05-05 00:58 | 29.41869 | -93.45758 | 26477 ft | 289 kts | 275° |
| 2026-05-05 00:58 | 29.41773 | -93.48054 | 26179 ft | 288 kts | 275° |
| 2026-05-05 00:59 | 29.41676 | -93.50344 | 25873 ft | 287 kts | 274° |
| 2026-05-05 00:59 | 29.41579 | -93.52633 | 25551 ft | 286 kts | 274° |
| 2026-05-05 00:59 | 29.41483 | -93.54908 | 25235 ft | 285 kts | 274° |
| 2026-05-05 00:59 | 29.41386 | -93.57186 | 24925 ft | 285 kts | 274° |
| 2026-05-05 01:00 | 29.41289 | -93.59453 | 24598 ft | 284 kts | 274° |
| 2026-05-05 01:00 | 29.41194 | -93.61683 | 24279 ft | 283 kts | 274° |
| 2026-05-05 01:00 | 29.41099 | -93.63944 | 23954 ft | 283 kts | 274° |
| 2026-05-05 01:00 | 29.41002 | -93.66189 | 23627 ft | 282 kts | 274° |
| 2026-05-05 01:01 | 29.40904 | -93.68431 | 23260 ft | 281 kts | 273° |
| 2026-05-05 01:01 | 29.40804 | -93.70664 | 22922 ft | 280 kts | 273° |
| 2026-05-05 01:01 | 29.40704 | -93.72891 | 22591 ft | 280 kts | 273° |
| 2026-05-05 01:01 | 29.40605 | -93.75118 | 22268 ft | 279 kts | 273° |
| 2026-05-05 01:02 | 29.40507 | -93.77334 | 21943 ft | 278 kts | 273° |
| 2026-05-05 01:02 | 29.40411 | -93.79550 | 21617 ft | 277 kts | 272° |
| 2026-05-05 01:02 | 29.40315 | -93.81755 | 21282 ft | 277 kts | 272° |
| 2026-05-05 01:02 | 29.40218 | -93.83960 | 20962 ft | 276 kts | 272° |
| 2026-05-05 01:03 | 29.40119 | -93.86157 | 20637 ft | 276 kts | 272° |
| 2026-05-05 01:03 | 29.40021 | -93.88348 | 20312 ft | 275 kts | 272° |
| 2026-05-05 01:03 | 29.39923 | -93.90536 | 19978 ft | 275 kts | 272° |
| 2026-05-05 01:03 | 29.39826 | -93.92726 | 19670 ft | 276 kts | 271° |
| 2026-05-05 01:04 | 29.39729 | -93.94922 | 19337 ft | 275 kts | 271° |
| 2026-05-05 01:04 | 29.39532 | -93.99252 | 18682 ft | 273 kts | 271° |
| 2026-05-05 01:04 | 29.39432 | -94.01428 | 18358 ft | 273 kts | 271° |
| 2026-05-05 01:05 | 29.39330 | -94.03599 | 18002 ft | 272 kts | 271° |
| 2026-05-05 01:05 | 29.39231 | -94.05763 | 17665 ft | 271 kts | 271° |
| 2026-05-05 01:05 | 29.39132 | -94.07922 | 17341 ft | 271 kts | 271° |
| 2026-05-05 01:05 | 29.39031 | -94.10077 | 17075 ft | 270 kts | 271° |
| 2026-05-05 01:06 | 29.38931 | -94.12222 | 16755 ft | 269 kts | 271° |
| 2026-05-05 01:06 | 29.38829 | -94.14366 | 16447 ft | 269 kts | 270° |
| 2026-05-05 01:06 | 29.38726 | -94.16510 | 16128 ft | 268 kts | 270° |
| 2026-05-05 01:06 | 29.38625 | -94.18642 | 15808 ft | 268 kts | 270° |
| 2026-05-05 01:07 | 29.38525 | -94.20773 | 15488 ft | 267 kts | 270° |
| 2026-05-05 01:07 | 29.38426 | -94.22897 | 15177 ft | 266 kts | 270° |
| 2026-05-05 01:07 | 29.38327 | -94.24995 | 14866 ft | 266 kts | 270° |
| 2026-05-05 01:07 | 29.38228 | -94.27106 | 14552 ft | 266 kts | 270° |
| 2026-05-05 01:08 | 29.38130 | -94.29219 | 14236 ft | 265 kts | 270° |
| 2026-05-05 01:08 | 29.38029 | -94.31331 | 13920 ft | 265 kts | 270° |
| 2026-05-05 01:08 | 29.37928 | -94.33442 | 13581 ft | 265 kts | 270° |
| 2026-05-05 01:08 | 29.37926 | -94.35540 | 13255 ft | 262 kts | 279° |
| 2026-05-05 01:09 | 29.38355 | -94.37546 | 12949 ft | 260 kts | 292° |
| 2026-05-05 01:09 | 29.39253 | -94.39438 | 12794 ft | 277 kts | 305° |
| 2026-05-05 01:09 | 29.40417 | -94.41225 | 12615 ft | 281 kts | 306° |
| 2026-05-05 01:09 | 29.41585 | -94.43018 | 12408 ft | 281 kts | 306° |
| 2026-05-05 01:10 | 29.42755 | -94.44820 | 12228 ft | 281 kts | 306° |
| 2026-05-05 01:10 | 29.43922 | -94.46621 | 12034 ft | 281 kts | 306° |
| 2026-05-05 01:10 | 29.45087 | -94.48422 | 11845 ft | 281 kts | 306° |
| 2026-05-05 01:10 | 29.46250 | -94.50218 | 11648 ft | 280 kts | 306° |
| 2026-05-05 01:11 | 29.47412 | -94.52018 | 11465 ft | 280 kts | 305° |
| 2026-05-05 01:11 | 29.48569 | -94.53810 | 11273 ft | 280 kts | 305° |
| 2026-05-05 01:11 | 29.49713 | -94.55580 | 11084 ft | 279 kts | 305° |
| 2026-05-05 01:11 | 29.50955 | -94.57255 | 10883 ft | 274 kts | 316° |
| 2026-05-05 01:12 | 29.52529 | -94.58446 | 10748 ft | 273 kts | 332° |
| 2026-05-05 01:12 | 29.54322 | -94.59209 | 10613 ft | 275 kts | 338° |
| 2026-05-05 01:12 | 29.56129 | -94.59928 | 10433 ft | 275 kts | 338° |
| 2026-05-05 01:12 | 29.57937 | -94.60644 | 10251 ft | 274 kts | 338° |
| 2026-05-05 01:13 | 29.59737 | -94.61358 | 10061 ft | 274 kts | 338° |
| 2026-05-05 01:13 | 29.61541 | -94.62078 | 9885 ft | 274 kts | 338° |
| 2026-05-05 01:13 | 29.63334 | -94.62794 | 9675 ft | 273 kts | 338° |
| 2026-05-05 01:13 | 29.65132 | -94.63512 | 9490 ft | 273 kts | 338° |
| 2026-05-05 01:14 | 29.66921 | -94.64230 | 9303 ft | 272 kts | 337° |
| 2026-05-05 01:14 | 29.68708 | -94.64947 | 9123 ft | 272 kts | 337° |
| 2026-05-05 01:14 | 29.70489 | -94.65660 | 8936 ft | 271 kts | 337° |
| 2026-05-05 01:14 | 29.72275 | -94.66372 | 8756 ft | 270 kts | 337° |
| 2026-05-05 01:15 | 29.74049 | -94.67082 | 8573 ft | 270 kts | 337° |
| 2026-05-05 01:15 | 29.75823 | -94.67795 | 8393 ft | 269 kts | 338° |
| 2026-05-05 01:15 | 29.77594 | -94.68506 | 8209 ft | 269 kts | 338° |
| 2026-05-05 01:15 | 29.79341 | -94.69207 | 8016 ft | 269 kts | 338° |
| 2026-05-05 01:16 | 29.81109 | -94.69916 | 7841 ft | 269 kts | 338° |
| 2026-05-05 01:16 | 29.82875 | -94.70622 | 7658 ft | 269 kts | 338° |
| 2026-05-05 01:16 | 29.84641 | -94.71328 | 7478 ft | 268 kts | 337° |
| 2026-05-05 01:16 | 29.86399 | -94.72036 | 7298 ft | 268 kts | 337° |
| 2026-05-05 01:17 | 29.88157 | -94.72744 | 7109 ft | 268 kts | 337° |
| 2026-05-05 01:17 | 29.89912 | -94.73455 | 6929 ft | 267 kts | 337° |
| 2026-05-05 01:17 | 29.91667 | -94.74163 | 6751 ft | 267 kts | 338° |
| 2026-05-05 01:17 | 29.93408 | -94.74862 | 6607 ft | 261 kts | 338° |
| 2026-05-05 01:18 | 29.95101 | -94.75539 | 6375 ft | 257 kts | 337° |
| 2026-05-05 01:18 | 29.96763 | -94.76204 | 6251 ft | 248 kts | 337° |
| 2026-05-05 01:18 | 29.98301 | -94.76958 | 6192 ft | 232 kts | 321° |
| 2026-05-05 01:18 | 29.99353 | -94.78293 | 6142 ft | 223 kts | 295° |
| 2026-05-05 01:19 | 29.99960 | -94.79953 | 6092 ft | 222 kts | 290° |
| 2026-05-05 01:19 | 30.00484 | -94.81625 | 6046 ft | 220 kts | 282° |
| 2026-05-05 01:19 | 30.00661 | -94.83371 | 5998 ft | 219 kts | 269° |
| 2026-05-05 01:19 | 30.00659 | -94.85129 | 5950 ft | 219 kts | 269° |
| 2026-05-05 01:20 | 30.00661 | -94.86884 | 5904 ft | 219 kts | 269° |
| 2026-05-05 01:20 | 30.00664 | -94.88646 | 5854 ft | 220 kts | 269° |
| 2026-05-05 01:20 | 30.00669 | -94.90404 | 5806 ft | 219 kts | 269° |
| 2026-05-05 01:20 | 30.00673 | -94.92165 | 5759 ft | 219 kts | 269° |
| 2026-05-05 01:21 | 30.00678 | -94.93919 | 5711 ft | 218 kts | 268° |
| 2026-05-05 01:21 | 30.00682 | -94.95679 | 5665 ft | 219 kts | 268° |
| 2026-05-05 01:21 | 30.00686 | -94.97414 | 5618 ft | 219 kts | 268° |
| 2026-05-05 01:21 | 30.00690 | -94.99168 | 5570 ft | 218 kts | 268° |
| 2026-05-05 01:22 | 30.00694 | -95.00918 | 5375 ft | 217 kts | 268° |
| 2026-05-05 01:22 | 30.00697 | -95.02638 | 5123 ft | 211 kts | 268° |
| 2026-05-05 01:22 | 30.00700 | -95.04303 | 4859 ft | 205 kts | 267° |
| 2026-05-05 01:22 | 30.00703 | -95.05937 | 4599 ft | 201 kts | 266° |
| 2026-05-05 01:23 | 30.00706 | -95.07516 | 4342 ft | 193 kts | 266° |
| 2026-05-05 01:23 | 30.00709 | -95.09030 | 4082 ft | 184 kts | 266° |
| 2026-05-05 01:23 | 30.00710 | -95.10503 | 3842 ft | 183 kts | 265° |
| 2026-05-05 01:23 | 30.00711 | -95.11971 | 3598 ft | 183 kts | 265° |
| 2026-05-05 01:24 | 30.00712 | -95.13417 | 3370 ft | 183 kts | 264° |
| 2026-05-05 01:24 | 30.00714 | -95.14899 | 3133 ft | 183 kts | 264° |
| 2026-05-05 01:24 | 30.00715 | -95.16345 | 2898 ft | 182 kts | 263° |
| 2026-05-05 01:24 | 30.00717 | -95.17809 | 2654 ft | 176 kts | 262° |
| 2026-05-05 01:25 | 30.00721 | -95.19145 | 2429 ft | 158 kts | 262° |
| 2026-05-05 01:25 | 30.00722 | -95.20360 | 2231 ft | 146 kts | 261° |
| 2026-05-05 01:25 | 30.00722 | -95.21511 | 2046 ft | 141 kts | 261° |
| 2026-05-05 01:25 | 30.00721 | -95.22640 | 1865 ft | 139 kts | 261° |
| 2026-05-05 01:26 | 30.00721 | -95.23737 | 1693 ft | 133 kts | 260° |
| 2026-05-05 01:26 | 30.00722 | -95.24771 | 1516 ft | 127 kts | 259° |
| 2026-05-05 01:26 | 30.00721 | -95.25777 | 1346 ft | 126 kts | 261° |
| 2026-05-05 01:26 | 30.00720 | -95.26799 | 1182 ft | 128 kts | 261° |
| 2026-05-05 01:27 | 30.00720 | -95.27823 | 1013 ft | 128 kts | 261° |
| 2026-05-05 01:27 | 30.00720 | -95.28849 | 833 ft | 128 kts | 263° |
| 2026-05-05 01:27 | 30.00726 | -95.29881 | 660 ft | 129 kts | 265° |
| 2026-05-05 01:27 | 30.00720 | -95.30921 | 504 ft | 131 kts | 268° |
| 2026-05-05 01:28 | 30.00723 | -95.31953 | 306 ft | 129 kts | 265° |
| 2026-05-05 01:28 | 30.00721 | -95.32993 | 157 ft | 130 kts | 262° |
| 2026-05-05 01:28 | 30.00711 | -95.33926 | 106 ft | 96 kts | 270° |
| 2026-05-05 01:28 | 30.00719 | -95.34510 | 107 ft | 56 kts | 270° |
| 2026-05-05 01:29 | 30.00717 | -95.34886 | 106 ft | 37 kts | 269° |
| 2026-05-05 01:29 | 30.00717 | -95.35134 | 107 ft | 27 kts | 269° |
| 2026-05-05 01:29 | 30.00700 | -95.35327 | 104 ft | 16 kts | 254° |
| 2026-05-05 01:29 | 30.00654 | -95.35453 | 105 ft | 14 kts | 241° |
| 2026-05-05 01:30 | 30.00632 | -95.35496 | 107 ft | 3 kts | 239° |
| 2026-05-05 01:30 | 30.00615 | -95.35528 | 107 ft | 6 kts | 239° |
| 2026-05-05 01:30 | 30.00585 | -95.35589 | 106 ft | 11 kts | 239° |
| 2026-05-05 01:30 | 30.00520 | -95.35649 | 107 ft | 14 kts | 204° |
| 2026-05-05 01:31 | 30.00418 | -95.35655 | 107 ft | 16 kts | 179° |
| 2026-05-05 01:31 | 30.00337 | -95.35653 | 107 ft | 19 kts | 179° |
| 2026-05-05 01:31 | 30.00221 | -95.35636 | 107 ft | 16 kts | 151° |
| 2026-05-05 01:31 | 30.00139 | -95.35556 | 107 ft | 15 kts | 142° |
| 2026-05-05 01:32 | 30.00035 | -95.35497 | 107 ft | 18 kts | 163° |
| 2026-05-05 01:32 | 29.99912 | -95.35485 | 107 ft | 18 kts | 180° |
| 2026-05-05 01:32 | 29.99772 | -95.35484 | 107 ft | 23 kts | 181° |
| 2026-05-05 01:32 | 29.99631 | -95.35485 | 107 ft | 12 kts | 180° |
| 2026-05-05 01:33 | 29.99549 | -95.35485 | 107 ft | 13 kts | 180° |
| 2026-05-05 01:33 | 29.99443 | -95.35484 | 107 ft | 17 kts | 179° |
| 2026-05-05 01:33 | 29.99308 | -95.35483 | 107 ft | 22 kts | 179° |
| 2026-05-05 01:33 | 29.99179 | -95.35484 | 107 ft | 17 kts | 180° |